Time;durP1;ratioP1;P1;durP2;ratioP2;P2;SDS_P1;SDS_P2;PMS_P1;PMS_P2;Temp;Humidity;BMP_temperature;BMP_pressure;BME280_temperature;BME280_humidity;BME280_pressure;Samples;Min_cycle;Max_cycle;Signal;HPM_P1;HPM_P2
2021/12/17 00:04:39;;;;;;;28.88;15.30;;;8.10;99.90;;;;;;5033606;28;20140;-76
2021/12/17 00:07:14;;;;;;;27.00;15.02;;;8.30;99.90;;;;;;5032300;28;20045;-76
2021/12/17 00:09:42;;;;;;;27.48;15.65;;;8.10;99.90;;;;;;5033167;28;20132;-82
2021/12/17 00:12:11;;;;;;;29.27;14.25;;;8.10;99.90;;;;;;5033260;28;20188;-76
2021/12/17 00:14:42;;;;;;;28.17;14.18;;;8.10;99.90;;;;;;5033221;28;20451;-78
2021/12/17 00:17:12;;;;;;;27.98;14.70;;;8.20;99.90;;;;;;5032384;28;20103;-77
2021/12/17 00:20:01;;;;;;;33.05;15.35;;;9.10;99.90;;;;;;5033287;28;20046;-76
2021/12/17 00:49:45;;;;;;;22.80;10.18;;;8.00;99.90;;;;;;5037005;28;20053;-81
2021/12/17 00:52:11;;;;;;;20.02;9.75;;;7.90;99.90;;;;;;5035963;28;20052;-79
2021/12/17 00:54:40;;;;;;;22.70;10.00;;;8.60;99.90;;;;;;5036707;28;20129;-76
2021/12/17 00:57:09;;;;;;;20.60;10.40;;;8.00;99.90;;;;;;5036985;28;20049;-76
2021/12/17 00:59:35;;;;;;;22.50;9.65;;;7.90;99.90;;;;;;5036822;28;20061;-78
2021/12/17 01:02:02;;;;;;;;;;;7.90;99.90;;;;;;5037311;28;20091;-76
2021/12/17 01:04:28;;;;;;;18.15;8.30;;;7.90;99.90;;;;;;5036738;28;19921;-76
2021/12/17 01:06:54;;;;;;;15.45;7.75;;;8.60;99.90;;;;;;5036616;28;20127;-77
2021/12/17 01:09:22;;;;;;;13.23;6.57;;;8.40;99.90;;;;;;5036314;28;20049;-76
2021/12/17 01:11:48;;;;;;;11.20;5.97;;;7.90;99.90;;;;;;5036410;28;20427;-76
2021/12/17 01:14:14;;;;;;;8.43;5.15;;;7.80;99.90;;;;;;5069058;28;20045;-79
2021/12/17 01:16:41;;;;;;;10.45;5.05;;;8.60;99.90;;;;;;5036488;28;20045;-75
2021/12/17 01:42:56;;;;;;;7.20;3.60;;;7.90;99.90;;;;;;5034715;28;20557;-77
2021/12/17 01:45:27;;;;;;;7.70;3.60;;;7.90;99.90;;;;;;5036352;28;20136;-82
2021/12/17 01:47:54;;;;;;;7.70;3.67;;;7.90;99.90;;;;;;5035926;28;20404;-81
2021/12/17 02:00:58;;;;;;;7.88;3.40;;;7.90;99.90;;;;;;5035658;28;20107;-77
2021/12/17 02:03:25;;;;;;;8.88;4.20;;;7.90;99.90;;;;;;5035650;28;20049;-80
2021/12/17 02:05:51;;;;;;;10.90;3.67;;;8.90;99.90;;;;;;5035471;28;20095;-82
2021/12/17 02:08:18;;;;;;;7.43;3.60;;;7.90;99.90;;;;;;5035143;28;20406;-79
2021/12/17 02:32:03;;;;;;;9.23;3.80;;;8.00;99.90;;;;;;5049648;28;20050;-76
2021/12/17 02:37:09;;;;;;;7.15;3.65;;;7.80;99.90;;;;;;5049663;28;20493;-77
2021/12/17 02:47:30;;;;;;;12.10;4.53;;;8.10;99.90;;;;;;5032458;28;20054;-78
2021/12/17 02:49:56;;;;;;;8.93;3.63;;;7.70;99.90;;;;;;5016314;28;20059;-77
2021/12/17 02:52:29;;;;;;;8.82;3.95;;;7.70;99.90;;;;;;5032729;28;20136;-76
2021/12/17 02:54:57;;;;;;;9.07;4.15;;;7.70;99.90;;;;;;5033213;28;20045;-82
2021/12/17 02:57:24;;;;;;;10.18;3.90;;;9.00;99.90;;;;;;5034633;28;20049;-76
2021/12/17 02:59:50;;;;;;;13.55;4.07;;;7.70;99.90;;;;;;5034542;28;20077;-76
2021/12/17 03:02:18;;;;;;;10.65;3.95;;;7.70;99.90;;;;;;5034409;28;20041;-76
2021/12/17 03:04:44;;;;;;;10.98;3.90;;;7.70;99.90;;;;;;5016867;28;20065;-77
2021/12/17 03:07:12;;;;;;;14.02;4.25;;;7.70;99.90;;;;;;5034611;28;20053;-77
2021/12/17 03:12:30;;;;;;;11.13;4.57;;;7.70;99.90;;;;;;5033460;28;20049;-76
2021/12/17 03:15:05;;;;;;;9.60;4.60;;;7.70;99.90;;;;;;5033208;28;20412;-83
2021/12/17 03:25:34;;;;;;;12.20;5.15;;;8.60;99.90;;;;;;5034045;28;20103;-76
2021/12/17 03:28:00;;;;;;;9.65;5.40;;;7.60;99.90;;;;;;5033764;28;20045;-75
2021/12/17 03:30:26;;;;;;;12.98;4.32;;;7.70;99.90;;;;;;5034058;28;20063;-76
2021/12/17 03:32:52;;;;;;;9.38;4.28;;;7.60;99.90;;;;;;5034021;28;20049;-76
2021/12/17 03:35:17;;;;;;;9.75;4.10;;;8.20;99.90;;;;;;5033958;28;20053;-76
2021/12/17 03:37:43;;;;;;;8.73;4.93;;;7.60;99.90;;;;;;5033716;28;20042;-77
2021/12/17 03:40:13;;;;;;;10.55;4.82;;;8.00;99.90;;;;;;5033750;28;20143;-81
2021/12/17 03:42:45;;;;;;;12.05;5.03;;;7.60;99.90;;;;;;5033572;28;20045;-74
2021/12/17 03:45:11;;;;;;;14.82;6.03;;;8.20;99.90;;;;;;5066245;28;20057;-78
2021/12/17 03:47:37;;;;;;;13.70;6.43;;;7.60;99.90;;;;;;5033551;28;20091;-77
2021/12/17 03:50:04;;;;;;;11.93;5.25;;;8.00;99.90;;;;;;5033811;28;20124;-76
2021/12/17 03:52:30;;;;;;;13.05;5.28;;;7.60;99.90;;;;;;5033681;28;20041;-76
2021/12/17 03:54:56;;;;;;;12.95;5.60;;;7.60;99.90;;;;;;5033503;28;20460;-80
2021/12/17 03:57:22;;;;;;;11.68;4.97;;;7.60;99.90;;;;;;5032508;28;20045;-77
2021/12/17 03:59:48;;;;;;;9.95;4.72;;;8.20;99.90;;;;;;5033597;28;20085;-76
2021/12/17 04:02:14;;;;;;;12.20;5.00;;;7.90;99.90;;;;;;5033562;28;20464;-76
2021/12/17 04:04:40;;;;;;;;;;;7.60;99.90;;;;;;5034083;28;20053;-76
2021/12/17 04:07:05;;;;;;;10.35;4.65;;;7.60;99.90;;;;;;5032499;28;19921;-76
2021/12/17 04:09:31;;;;;;;9.13;4.50;;;7.60;99.90;;;;;;5033588;28;20057;-78
2021/12/17 04:12:00;;;;;;;8.82;4.03;;;8.10;99.90;;;;;;5033217;28;20049;-82
2021/12/17 04:14:34;;;;;;;11.60;5.35;;;7.60;99.90;;;;;;5033136;28;20481;-76
2021/12/17 04:17:05;;;;;;;12.43;4.30;;;7.60;99.90;;;;;;5033371;28;20069;-81
2021/12/17 04:19:31;;;;;;;8.95;4.10;;;8.10;99.90;;;;;;5032150;28;20120;-76
2021/12/17 04:21:57;;;;;;;7.45;4.25;;;7.60;99.90;;;;;;5033250;28;20132;-79
2021/12/17 04:24:23;;;;;;;12.02;5.28;;;8.00;99.90;;;;;;5033342;28;20049;-76
2021/12/17 04:26:48;;;;;;;13.27;5.30;;;7.60;99.90;;;;;;5033184;28;20388;-77
2021/12/17 04:29:15;;;;;;;12.65;6.60;;;7.60;99.90;;;;;;5033567;28;20042;-79
2021/12/17 04:31:41;;;;;;;9.80;5.88;;;7.60;99.90;;;;;;5033109;28;20041;-81
2021/12/17 04:34:08;;;;;;;23.67;6.15;;;8.10;99.90;;;;;;5032277;28;20378;-77
2021/12/17 04:36:36;;;;;;;17.75;7.57;;;7.60;99.90;;;;;;5032217;28;20045;-76
2021/12/17 04:39:02;;;;;;;16.42;7.30;;;7.70;99.90;;;;;;5032951;28;20041;-77
2021/12/17 04:57:14;;;;;;;13.85;6.40;;;7.60;99.90;;;;;;5032872;28;20496;-77
2021/12/17 04:57:48;;;;;;;15.38;7.32;;;7.60;99.90;;;;;;4975240;28;20133;-76
2021/12/17 05:00:19;;;;;;;15.02;7.07;;;8.30;99.90;;;;;;4991332;28;20580;-77
2021/12/17 05:02:48;;;;;;;15.48;7.03;;;8.70;99.90;;;;;;4991245;28;20146;-80
2021/12/17 05:05:16;;;;;;;14.52;7.22;;;7.60;99.90;;;;;;4975420;28;20090;-77
2021/12/17 05:07:47;;;;;;;13.98;6.97;;;8.60;99.90;;;;;;4975263;28;20046;-76
2021/12/17 05:18:27;;;;;;;10.73;5.80;;;8.00;99.90;;;;;;4993884;28;20485;-76
2021/12/17 05:20:59;;;;;;;12.43;6.25;;;8.10;99.90;;;;;;4994836;28;20417;-76
2021/12/17 05:23:30;;;;;;;12.95;6.10;;;7.90;99.90;;;;;;4978696;28;20085;-79
2021/12/17 05:25:59;;;;;;;13.70;6.13;;;8.40;99.90;;;;;;4978653;28;20129;-77
2021/12/17 05:28:25;;;;;;;14.63;6.28;;;8.80;99.90;;;;;;4996590;28;20052;-77
2021/12/17 05:30:52;;;;;;;14.13;6.40;;;8.50;99.90;;;;;;5036274;28;20075;-82
2021/12/17 05:33:19;;;;;;;15.23;6.63;;;8.30;99.90;;;;;;5035221;28;20057;-80
2021/12/17 05:35:46;;;;;;;13.02;6.30;;;7.90;99.90;;;;;;5036139;28;20104;-76
2021/12/17 05:38:13;;;;;;;12.90;6.95;;;7.70;99.90;;;;;;5036019;28;20041;-81
2021/12/17 05:40:39;;;;;;;12.55;7.15;;;8.00;99.90;;;;;;5036112;28;20041;-77
2021/12/17 05:43:06;;;;;;;15.52;7.13;;;7.60;99.90;;;;;;5034733;28;20500;-80
2021/12/17 05:48:29;;;;;;;12.53;6.60;;;7.80;99.90;;;;;;5033526;28;20053;-79
2021/12/17 05:50:58;;;;;;;17.83;6.15;;;7.60;99.90;;;;;;5033698;28;20276;-81
2021/12/17 05:53:25;;;;;;;12.77;6.28;;;7.60;99.90;;;;;;5033622;28;20065;-76
2021/12/17 05:55:51;;;;;;;11.02;6.30;;;7.60;99.90;;;;;;5016813;28;20057;-76
2021/12/17 05:58:17;;;;;;;13.07;7.15;;;8.50;99.90;;;;;;5033544;28;20060;-77
2021/12/17 06:00:43;;;;;;;;;;;7.60;99.90;;;;;;5033930;28;20045;-79
2021/12/17 06:03:10;;;;;;;17.25;6.40;;;8.90;99.90;;;;;;5033371;28;19936;-76
2021/12/17 06:05:37;;;;;;;15.00;7.28;;;7.60;99.90;;;;;;5033293;28;20147;-80
2021/12/17 06:08:04;;;;;;;13.10;7.10;;;7.70;99.90;;;;;;5016821;28;20058;-82
2021/12/17 06:10:31;;;;;;;12.98;6.63;;;7.60;99.90;;;;;;5033139;28;20122;-76
2021/12/17 06:12:57;;;;;;;13.55;7.13;;;7.60;99.90;;;;;;5033178;28;20146;-78
2021/12/17 06:15:24;;;;;;;10.80;6.43;;;7.60;99.90;;;;;;5017033;28;20103;-76
2021/12/17 06:17:50;;;;;;;12.75;7.43;;;8.60;99.90;;;;;;5016653;28;20099;-78
2021/12/17 06:20:19;;;;;;;13.75;6.78;;;7.60;99.90;;;;;;5016577;28;20124;-77
2021/12/17 06:22:46;;;;;;;11.57;6.72;;;7.80;99.90;;;;;;5033092;28;20046;-76
2021/12/17 06:25:12;;;;;;;15.60;7.47;;;7.60;99.90;;;;;;5034371;28;20065;-76
2021/12/17 06:27:38;;;;;;;11.00;7.35;;;7.90;99.90;;;;;;5035293;28;20041;-75
2021/12/17 06:30:05;;;;;;;;;;;8.10;99.90;;;;;;5034621;28;20095;-76
2021/12/17 06:32:31;;;;;;;21.15;10.23;;;7.60;99.90;;;;;;5034002;28;19928;-76
2021/12/17 06:34:57;;;;;;;14.65;7.03;;;7.60;99.90;;;;;;5033965;28;20074;-79
2021/12/17 06:37:23;;;;;;;13.35;6.95;;;7.60;99.90;;;;;;5035176;28;20496;-77
2021/12/17 06:39:49;;;;;;;17.02;7.40;;;7.60;99.90;;;;;;5035045;28;20049;-81
2021/12/17 06:42:15;;;;;;;13.93;7.63;;;7.60;99.90;;;;;;5035067;28;20415;-76
2021/12/17 06:44:42;;;;;;;;;;;7.60;99.90;;;;;;5034292;28;20046;-77
2021/12/17 06:49:57;;;;;;;14.00;7.30;;;7.70;99.90;;;;;;5033710;28;20473;-76
2021/12/17 07:00:21;;;;;;;16.33;9.15;;;8.20;99.90;;;;;;5034399;28;20132;-77
2021/12/17 07:10:44;;;;;;;14.73;8.52;;;7.70;99.90;;;;;;5033228;28;20053;-76
2021/12/17 07:34:10;;;;;;;13.90;7.85;;;7.70;99.90;;;;;;5033811;28;20531;-75
2021/12/17 07:36:42;;;;;;;16.80;8.48;;;8.70;99.90;;;;;;5032551;28;20511;-78
2021/12/17 07:39:08;;;;;;;13.38;8.68;;;7.70;99.90;;;;;;5033811;28;20045;-80
2021/12/17 07:41:34;;;;;;;14.70;8.32;;;7.70;99.90;;;;;;5048926;28;20049;-76
2021/12/17 07:44:02;;;;;;;15.05;8.48;;;7.70;99.90;;;;;;5033670;28;20092;-76
2021/12/17 07:46:28;;;;;;;13.90;7.43;;;7.70;99.90;;;;;;5033433;28;20056;-76
2021/12/17 07:48:54;;;;;;;14.02;8.80;;;7.70;99.90;;;;;;5032595;28;20492;-77
2021/12/17 07:51:22;;;;;;;15.82;6.97;;;7.70;99.90;;;;;;5033739;28;20041;-76
2021/12/17 07:53:49;;;;;;;13.68;7.90;;;9.00;99.90;;;;;;5032355;28;20061;-80
2021/12/17 07:56:20;;;;;;;15.30;8.02;;;7.90;99.90;;;;;;5033536;28;20492;-76
2021/12/17 07:58:46;;;;;;;12.85;7.35;;;7.70;99.90;;;;;;5031992;28;20061;-78
2021/12/17 08:01:12;;;;;;;12.60;7.50;;;8.10;99.90;;;;;;5033724;28;20481;-76
2021/12/17 08:03:39;;;;;;;12.48;6.82;;;7.70;99.90;;;;;;5033561;28;20052;-76
2021/12/17 08:06:05;;;;;;;14.82;8.75;;;7.70;99.90;;;;;;5032499;28;20052;-76
2021/12/17 08:08:32;;;;;;;17.33;8.75;;;7.80;99.90;;;;;;5033284;28;20409;-80
2021/12/17 08:10:58;;;;;;;18.08;8.75;;;7.80;99.90;;;;;;5033362;28;20543;-77
2021/12/17 08:13:30;;;;;;;17.33;8.32;;;7.80;99.90;;;;;;5035488;28;20091;-76
2021/12/17 08:23:21;;;;;;;17.85;9.48;;;7.80;99.90;;;;;;5053130;28;20052;-77
2021/12/17 08:26:52;;;;;;;19.90;9.55;;;7.80;99.90;;;;;;5053014;28;20080;-81
2021/12/17 08:32:07;;;;;;;13.50;8.55;;;7.90;99.90;;;;;;5052751;28;20163;-81
2021/12/17 08:34:34;;;;;;;22.27;10.93;;;7.90;99.90;;;;;;5052811;28;20130;-75
2021/12/17 08:37:00;;;;;;;22.90;9.73;;;7.90;99.90;;;;;;5053138;28;20436;-76
2021/12/17 08:39:30;;;;;;;17.08;10.05;;;7.90;99.90;;;;;;5068516;28;20045;-81
2021/12/17 08:41:56;;;;;;;20.33;10.35;;;8.90;99.90;;;;;;5034998;28;20507;-80
2021/12/17 08:44:22;;;;;;;23.65;11.15;;;7.90;99.90;;;;;;5052882;28;20045;-77
2021/12/17 08:46:48;;;;;;;21.40;9.98;;;8.20;99.90;;;;;;5052592;28;20737;-78
2021/12/17 08:49:15;;;;;;;30.08;11.63;;;7.90;99.90;;;;;;5018809;28;20045;-78
2021/12/17 08:51:42;;;;;;;26.98;12.80;;;7.90;99.90;;;;;;5053043;28;20041;-76
2021/12/17 08:54:09;;;;;;;28.52;11.98;;;7.90;99.90;;;;;;5056854;28;20048;-77
2021/12/17 08:56:42;;;;;;;26.38;12.52;;;7.90;99.90;;;;;;5056799;28;20049;-77
2021/12/17 08:59:09;;;;;;;21.83;11.23;;;8.00;99.90;;;;;;5055595;28;20095;-77
2021/12/17 09:01:35;;;;;;;25.98;12.60;;;8.40;99.90;;;;;;5072572;28;20546;-76
2021/12/17 09:04:01;;;;;;;22.95;11.50;;;8.10;99.90;;;;;;5076520;28;20080;-81
2021/12/17 09:06:28;;;;;;;26.05;12.05;;;8.70;99.90;;;;;;5058913;28;20135;-79
2021/12/17 09:08:55;;;;;;;27.40;13.13;;;8.80;99.90;;;;;;5076608;28;20075;-77
2021/12/17 09:11:26;;;;;;;28.75;11.85;;;8.00;99.90;;;;;;5076559;28;20056;-78
2021/12/17 09:13:54;;;;;;;31.48;13.57;;;9.00;99.90;;;;;;5076468;28;20091;-77
2021/12/17 09:16:23;;;;;;;26.45;13.15;;;8.00;99.90;;;;;;5058578;28;20052;-80
2021/12/17 09:18:51;;;;;;;26.58;13.63;;;8.90;99.90;;;;;;5074733;28;20048;-79
2021/12/17 09:21:19;;;;;;;27.23;13.55;;;8.10;99.90;;;;;;5076173;28;20060;-80
2021/12/17 09:23:46;;;;;;;31.92;12.40;;;8.10;99.90;;;;;;5058454;28;20071;-77
2021/12/17 09:26:17;;;;;;;34.25;15.40;;;8.10;99.90;;;;;;5076040;28;20057;-79
2021/12/17 09:28:44;;;;;;;26.27;13.45;;;8.10;99.90;;;;;;5075976;28;20403;-76
2021/12/17 09:31:11;;;;;;;26.38;14.13;;;8.10;99.90;;;;;;5075804;28;20453;-76
2021/12/17 09:33:42;;;;;;;26.48;13.52;;;8.10;99.90;;;;;;5075910;28;20052;-74
2021/12/17 09:36:09;;;;;;;27.52;13.43;;;8.10;99.90;;;;;;5041477;28;20411;-76
2021/12/17 09:38:35;;;;;;;;;;;8.20;99.90;;;;;;5076467;28;20041;-76
2021/12/17 09:41:03;;;;;;;26.80;12.40;;;8.20;99.90;;;;;;5075680;28;19920;-76
2021/12/17 09:43:30;;;;;;;34.63;14.23;;;8.20;99.90;;;;;;5058090;28;20048;-76
2021/12/17 09:45:57;;;;;;;27.05;13.40;;;8.20;99.90;;;;;;5075329;28;20048;-76
2021/12/17 09:48:24;;;;;;;33.33;14.82;;;8.20;99.90;;;;;;5075457;28;20561;-79
2021/12/17 09:50:52;;;;;;;32.22;14.00;;;8.20;99.90;;;;;;5075690;28;20555;-77
2021/12/17 09:53:19;;;;;;;28.05;13.60;;;9.20;99.90;;;;;;5074612;28;20048;-76
2021/12/17 09:55:45;;;;;;;27.05;13.38;;;8.20;99.90;;;;;;5075325;28;20052;-76
2021/12/17 09:58:11;;;;;;;;;;;8.20;99.90;;;;;;5075790;28;20040;-77
2021/12/17 10:00:38;;;;;;;25.70;13.05;;;8.30;99.90;;;;;;5057480;28;19920;-83
2021/12/17 10:03:06;;;;;;;;;;;8.30;99.90;;;;;;5057255;28;20495;-75
2021/12/17 10:05:38;;;;;;;26.98;12.23;;;8.30;99.90;;;;;;5074673;28;19920;-75
2021/12/17 10:08:09;;;;;;;29.08;13.77;;;8.30;99.90;;;;;;5057334;28;20408;-76
2021/12/17 10:10:44;;;;;;;23.83;12.85;;;8.30;99.90;;;;;;5074932;28;20088;-76
2021/12/17 10:13:11;;;;;;;28.88;14.13;;;8.30;99.90;;;;;;5075102;28;20083;-80
2021/12/17 10:15:40;;;;;;;25.85;12.50;;;8.40;99.90;;;;;;5075324;28;20095;-78
2021/12/17 10:18:06;;;;;;;25.25;12.55;;;8.40;99.90;;;;;;5074853;28;20040;-74
2021/12/17 10:20:34;;;;;;;;;;;8.40;99.90;;;;;;5091222;28;20059;-82
2021/12/17 10:23:07;;;;;;;27.20;12.00;;;8.40;99.90;;;;;;5075008;28;19920;-76
2021/12/17 10:25:37;;;;;;;22.08;10.98;;;8.40;99.90;;;;;;5074919;28;20515;-76
2021/12/17 10:28:05;;;;;;;19.90;11.13;;;8.40;99.90;;;;;;5056935;28;20116;-77
2021/12/17 10:30:34;;;;;;;22.30;10.85;;;8.40;99.90;;;;;;5074581;28;20122;-77
2021/12/17 10:33:09;;;;;;;21.10;11.30;;;8.80;99.90;;;;;;5074748;28;20181;-78
2021/12/17 10:35:43;;;;;;;18.73;10.75;;;8.50;99.90;;;;;;5073775;28;20437;-81
2021/12/17 10:38:13;;;;;;;21.67;11.82;;;8.50;99.90;;;;;;5074640;28;20496;-78
2021/12/17 10:40:45;;;;;;;24.80;11.77;;;9.20;99.90;;;;;;5074514;28;20055;-77
2021/12/17 10:43:20;;;;;;;26.63;11.77;;;8.50;99.90;;;;;;5074456;28;20056;-77
2021/12/17 10:51:15;;;;;;;21.17;11.23;;;8.50;99.90;;;;;;5074290;28;20503;-78
2021/12/17 10:53:53;;;;;;;29.25;11.85;;;8.50;99.90;;;;;;5074486;28;20053;-85
2021/12/17 10:56:25;;;;;;;24.70;11.35;;;8.50;99.90;;;;;;5073989;28;20515;-76
2021/12/17 10:59:12;;;;;;;27.63;11.43;;;8.50;99.90;;;;;;5074245;28;20048;-83
2021/12/17 11:01:45;;;;;;;22.15;11.02;;;8.50;99.90;;;;;;5074146;28;20044;-80
2021/12/17 11:04:13;;;;;;;23.17;11.13;;;8.60;99.90;;;;;;5074088;28;20460;-76
2021/12/17 11:06:47;;;;;;;23.20;10.48;;;8.60;99.90;;;;;;5073475;28;20044;-78
2021/12/17 11:09:34;;;;;;;18.90;9.32;;;8.60;99.90;;;;;;5073873;28;20084;-78
2021/12/17 11:12:07;;;;;;;19.40;9.88;;;8.60;99.90;;;;;;5073885;28;20048;-77
2021/12/17 11:14:34;;;;;;;18.95;9.02;;;8.60;99.90;;;;;;5073414;28;20040;-78
2021/12/17 11:17:01;;;;;;;7.90;4.85;;;8.60;99.90;;;;;;5073747;28;20495;-77
2021/12/17 11:19:30;;;;;;;8.05;3.15;;;8.60;99.90;;;;;;5073913;28;20041;-80
2021/12/17 11:21:56;;;;;;;5.95;2.67;;;7.50;99.90;;;;;;5073792;28;20132;-79
2021/12/17 11:24:23;;;;;;;3.38;1.50;;;8.60;99.90;;;;;;5056134;28;20537;-80
2021/12/17 11:26:50;;;;;;;3.72;1.63;;;8.60;99.90;;;;;;5073686;28;20045;-79
2021/12/17 11:29:17;;;;;;;4.68;1.70;;;8.60;99.90;;;;;;5073874;28;20040;-79
2021/12/17 11:31:44;;;;;;;3.72;1.80;;;8.60;99.90;;;;;;5073661;28;20044;-79
2021/12/17 11:34:10;;;;;;;2.90;1.55;;;8.60;99.90;;;;;;5089231;28;20054;-77
2021/12/17 11:36:36;;;;;;;4.40;1.00;;;8.60;99.90;;;;;;5073528;28;20045;-80
2021/12/17 11:39:16;;;;;;;1.23;0.43;;;8.70;99.90;;;;;;5073352;28;20151;-77
2021/12/17 11:42:18;;;;;;;2.08;0.75;;;8.60;99.90;;;;;;5073590;28;20384;-82
2021/12/17 11:45:23;;;;;;;1.27;0.63;;;8.60;99.90;;;;;;5089375;28;20044;-78
2021/12/17 11:47:43;;;;;;;0.75;0.50;;;8.70;99.90;;;;;;5072081;28;20073;-80
2021/12/17 11:50:12;;;;;;;1.02;0.50;;;8.70;99.90;;;;;;5073153;28;20040;-78
2021/12/17 11:52:42;;;;;;;1.17;0.50;;;8.70;99.90;;;;;;5073111;28;20059;-79
2021/12/17 11:55:34;;;;;;;2.50;0.70;;;8.70;99.90;;;;;;5073431;28;20540;-78
2021/12/17 11:58:09;;;;;;;2.60;0.70;;;8.70;99.90;;;;;;5071948;28;20048;-80
2021/12/17 12:00:40;;;;;;;1.23;0.43;;;8.70;99.90;;;;;;5072806;28;20101;-79
2021/12/17 12:03:19;;;;;;;1.38;0.57;;;8.80;99.90;;;;;;5073231;28;20492;-79
2021/12/17 12:05:47;;;;;;;1.05;0.60;;;8.80;99.90;;;;;;5055585;28;20098;-79
2021/12/17 12:08:50;;;;;;;1.45;0.57;;;8.80;99.90;;;;;;5055408;28;20036;-80
2021/12/17 12:11:22;;;;;;;1.60;0.60;;;8.80;99.90;;;;;;5033521;28;20404;-77
2021/12/17 12:13:53;;;;;;;1.45;0.60;;;8.80;99.90;;;;;;5033435;28;20049;-79
2021/12/17 12:16:22;;;;;;;1.25;0.40;;;8.80;99.90;;;;;;5033355;28;20049;-83
2021/12/17 12:19:14;;;;;;;1.48;0.52;;;8.80;99.90;;;;;;5032350;28;20460;-80
2021/12/17 12:21:40;;;;;;;1.75;0.65;;;8.80;99.90;;;;;;5031051;28;20057;-79
2021/12/17 12:24:09;;;;;;;1.40;0.50;;;8.80;99.90;;;;;;5033455;28;20049;-80
2021/12/17 12:27:04;;;;;;;1.55;0.50;;;8.80;99.90;;;;;;5032516;28;20049;-78
2021/12/17 12:29:30;;;;;;;1.08;0.40;;;8.80;99.90;;;;;;4991481;28;20534;-77
2021/12/17 12:32:11;;;;;;;1.63;0.40;;;8.80;99.90;;;;;;4991603;28;20097;-81
2021/12/17 12:34:40;;;;;;;1.50;0.47;;;8.80;99.90;;;;;;4991430;28;20093;-80
2021/12/17 12:37:24;;;;;;;0.50;0.30;;;8.80;99.90;;;;;;4991545;28;20097;-81
2021/12/17 12:39:54;;;;;;;1.52;0.57;;;8.80;99.90;;;;;;4991454;28;20069;-81
2021/12/17 12:42:26;;;;;;;1.70;0.60;;;8.80;99.90;;;;;;4991335;28;20050;-80
2021/12/17 12:44:58;;;;;;;1.00;0.45;;;8.70;99.90;;;;;;4991456;28;20520;-79
2021/12/17 12:47:38;;;;;;;1.20;0.38;;;8.80;99.90;;;;;;4990422;28;20077;-79
2021/12/17 12:50:04;;;;;;;4.97;1.38;;;8.80;99.90;;;;;;4975438;28;20061;-81
2021/12/17 12:52:31;;;;;;;1.40;0.70;;;8.80;99.90;;;;;;4991438;28;20062;-80
2021/12/17 12:55:22;;;;;;;3.22;0.70;;;8.80;99.90;;;;;;4991360;28;20105;-77
2021/12/17 12:57:50;;;;;;;1.55;0.50;;;8.70;99.90;;;;;;4991177;28;20081;-80
2021/12/17 13:00:37;;;;;;;1.35;0.68;;;8.80;99.90;;;;;;4975123;28;20056;-81
2021/12/17 13:03:22;;;;;;;3.22;0.95;;;8.70;99.90;;;;;;4990588;28;20129;-79
2021/12/17 13:05:49;;;;;;;2.50;1.10;;;8.80;99.90;;;;;;5010636;28;20065;-83
2021/12/17 13:08:18;;;;;;;3.95;1.30;;;8.80;99.90;;;;;;5032752;28;20412;-81
2021/12/17 13:10:54;;;;;;;2.60;1.00;;;8.80;99.90;;;;;;5069780;28;20131;-80
2021/12/17 13:23:55;;;;;;;5.47;2.38;;;8.90;99.90;;;;;;5072538;28;20049;-79
2021/12/17 13:26:24;;;;;;;5.15;2.33;;;8.90;99.90;;;;;;5071692;28;20049;-79
2021/12/17 13:28:52;;;;;;;5.85;3.00;;;8.90;99.90;;;;;;5054006;28;20053;-83
2021/12/17 13:31:40;;;;;;;7.50;3.03;;;8.90;99.90;;;;;;5067879;28;20051;-82
2021/12/17 13:34:16;;;;;;;5.93;2.88;;;8.90;99.90;;;;;;5073935;28;20044;-83
2021/12/17 13:37:01;;;;;;;7.55;3.25;;;8.90;99.90;;;;;;5074590;28;20402;-81
2021/12/17 13:39:31;;;;;;;8.00;3.22;;;8.90;99.90;;;;;;5095512;28;20052;-84
2021/12/17 13:41:58;;;;;;;9.95;3.88;;;8.90;99.90;;;;;;5096302;28;20144;-82
2021/12/17 13:44:33;;;;;;;8.10;4.80;;;8.90;99.90;;;;;;5078024;28;20056;-82
2021/12/17 13:47:19;;;;;;;6.97;4.18;;;8.90;99.90;;;;;;5078077;28;20070;-80
2021/12/17 13:49:53;;;;;;;8.55;4.57;;;8.90;99.90;;;;;;5078045;28;20089;-82
2021/12/17 13:52:23;;;;;;;7.18;4.07;;;8.90;99.90;;;;;;5096055;28;20048;-83
2021/12/17 13:54:49;;;;;;;9.82;4.88;;;8.90;99.90;;;;;;5095999;28;20040;-82
2021/12/17 13:57:17;;;;;;;;;;;8.90;99.90;;;;;;5078101;28;20040;-84
2021/12/17 13:59:46;;;;;;;7.00;4.22;;;8.90;99.90;;;;;;5077984;28;20010;-82
2021/12/17 14:02:19;;;;;;;11.40;5.35;;;8.90;99.90;;;;;;5095808;28;20062;-84
2021/12/17 14:05:07;;;;;;;7.60;3.63;;;9.00;99.90;;;;;;5095779;28;20117;-81
2021/12/17 14:07:36;;;;;;;10.55;4.55;;;9.00;99.90;;;;;;5077740;28;20040;-84
2021/12/17 14:10:08;;;;;;;8.02;4.43;;;9.00;99.90;;;;;;5077611;28;20509;-81
2021/12/17 14:12:39;;;;;;;9.93;3.90;;;9.00;99.90;;;;;;5095460;28;20127;-81
2021/12/17 14:15:12;;;;;;;9.25;4.53;;;9.00;99.90;;;;;;5095529;28;20062;-81
2021/12/17 14:17:44;;;;;;;10.43;4.90;;;9.00;99.90;;;;;;5095654;28;20055;-81
2021/12/17 14:20:20;;;;;;;11.05;5.25;;;9.00;99.90;;;;;;5094704;28;20047;-81
2021/12/17 14:22:49;;;;;;;8.13;5.15;;;8.90;99.90;;;;;;5060938;28;20063;-82
2021/12/17 14:25:29;;;;;;;9.57;5.53;;;8.90;99.90;;;;;;5095207;28;20048;-81
2021/12/17 14:27:59;;;;;;;8.73;5.13;;;8.90;99.90;;;;;;5095249;28;20050;-81
2021/12/17 14:30:33;;;;;;;9.05;4.88;;;8.90;99.90;;;;;;5095303;28;20044;-84
2021/12/17 14:33:07;;;;;;;11.40;5.72;;;8.90;99.90;;;;;;5095124;28;20105;-81
2021/12/17 14:35:43;;;;;;;9.30;5.57;;;9.40;99.90;;;;;;5095194;28;20109;-81
2021/12/17 14:38:11;;;;;;;14.00;5.53;;;8.90;99.90;;;;;;5077467;28;20054;-82
2021/12/17 14:40:49;;;;;;;10.82;5.70;;;8.90;99.90;;;;;;5077154;28;20040;-84
2021/12/17 14:43:22;;;;;;;9.52;5.57;;;9.70;99.90;;;;;;5094918;28;20466;-83
2021/12/17 14:46:18;;;;;;;9.35;5.82;;;8.90;99.90;;;;;;5077058;28;20052;-82
2021/12/17 14:57:17;;;;;;;9.85;5.85;;;8.90;99.90;;;;;;5094922;28;20043;-84
2021/12/17 14:59:01;;;;;;;12.23;6.97;;;8.90;99.90;;;;;;5062888;28;20109;-81
2021/12/17 15:02:58;;;;;;;12.73;7.20;;;8.90;99.90;;;;;;5076399;28;20055;-82
2021/12/17 15:05:28;;;;;;;12.50;6.80;;;8.80;99.90;;;;;;5094202;28;20140;-82
2021/12/17 15:07:56;;;;;;;12.13;6.50;;;8.80;99.90;;;;;;5094701;28;20044;-83
2021/12/17 15:10:25;;;;;;;13.05;7.05;;;8.80;99.90;;;;;;5110039;28;20141;-82
2021/12/17 15:12:56;;;;;;;12.57;6.35;;;8.80;99.90;;;;;;5094426;28;20044;-83
2021/12/17 15:15:25;;;;;;;11.25;6.63;;;8.80;99.90;;;;;;5094312;28;20048;-82
2021/12/17 15:17:53;;;;;;;13.65;7.05;;;8.80;99.90;;;;;;5094173;28;20040;-81
2021/12/17 15:20:23;;;;;;;11.57;6.10;;;9.50;99.90;;;;;;5094277;28;20398;-80
2021/12/17 15:22:49;;;;;;;12.57;7.05;;;8.80;99.90;;;;;;5059746;28;20079;-83
2021/12/17 15:25:15;;;;;;;13.75;7.13;;;8.60;99.90;;;;;;5076177;28;20052;-81
2021/12/17 15:27:42;;;;;;;11.57;6.32;;;8.80;99.90;;;;;;5093987;28;20074;-81
2021/12/17 15:30:20;;;;;;;14.73;6.10;;;10.10;99.90;;;;;;5094114;28;20055;-81
2021/12/17 15:32:46;;;;;;;12.40;6.88;;;8.80;99.90;;;;;;5059428;28;20454;-83
2021/12/17 15:35:14;;;;;;;;;;;9.90;99.90;;;;;;5094616;28;20048;-81
2021/12/17 15:37:40;;;;;;;10.20;4.85;;;8.70;99.90;;;;;;5093103;28;19920;-81
2021/12/17 15:40:08;;;;;;;10.35;5.55;;;8.70;99.90;;;;;;5092904;28;20492;-81
2021/12/17 15:42:34;;;;;;;8.63;4.57;;;8.70;99.90;;;;;;5093549;28;20055;-81
2021/12/17 15:45:00;;;;;;;10.20;5.90;;;9.20;99.90;;;;;;5105964;28;20043;-79
2021/12/17 15:47:25;;;;;;;11.45;5.90;;;9.10;99.90;;;;;;5114099;28;20046;-81
2021/12/17 15:49:51;;;;;;;9.30;5.97;;;8.70;99.90;;;;;;5095740;28;20047;-79
2021/12/17 15:52:17;;;;;;;10.55;6.45;;;8.70;99.90;;;;;;5079166;28;20529;-81
2021/12/17 15:54:43;;;;;;;11.77;6.07;;;8.60;99.90;;;;;;5114192;28;20048;-81
2021/12/17 15:57:09;;;;;;;12.05;5.22;;;8.60;99.90;;;;;;5078842;28;20043;-83
2021/12/17 15:59:35;;;;;;;14.55;5.93;;;8.60;99.90;;;;;;5096014;28;20046;-81
2021/12/17 16:02:03;;;;;;;10.15;5.95;;;9.60;99.90;;;;;;5113870;28;20039;-84
2021/12/17 16:04:36;;;;;;;10.15;4.80;;;8.60;99.90;;;;;;5114055;28;20133;-81
2021/12/17 16:07:03;;;;;;;7.72;4.65;;;8.60;99.90;;;;;;5096887;28;20084;-81
2021/12/17 16:22:38;;;;;;;9.43;5.45;;;8.50;99.90;;;;;;5031029;28;20489;-81
2021/12/17 16:25:04;;;;;;;11.80;6.13;;;9.60;99.90;;;;;;5031028;28;20136;-81
2021/12/17 16:27:30;;;;;;;;;;;8.50;99.90;;;;;;5031317;28;20053;-79
2021/12/17 16:29:57;;;;;;;11.85;4.80;;;8.60;99.90;;;;;;5014783;28;19971;-82
2021/12/17 16:32:23;;;;;;;11.23;5.78;;;7.80;99.90;;;;;;5030925;28;20517;-77
2021/12/17 16:34:49;;;;;;;11.15;5.85;;;8.70;99.90;;;;;;5030806;28;20107;-79
2021/12/17 16:37:15;;;;;;;13.50;5.40;;;9.80;99.90;;;;;;5014710;28;20111;-78
2021/12/17 16:39:41;;;;;;;12.82;4.68;;;9.90;99.90;;;;;;5030641;28;20054;-82
2021/12/17 16:42:16;;;;;;;13.18;4.78;;;9.00;99.90;;;;;;5030899;28;20054;-81
2021/12/17 16:47:27;;;;;;;9.13;4.47;;;8.40;99.90;;;;;;5030539;28;20200;-84